Terminal Aerodrome Forecast
Issued by NWS

Home | Current Version | Previous Version | Text Only | Print | Product List | Glossary On
Versions: 1 2 3 4 5 6 7 8 9 10 11 12 13 14
000
FTAK31 PANC 241121
TAFADL
TAF
PADL 241121Z 2412/2512 32005KT P6SM SKC WS020/35035KT
     FM241500 30009KT P6SM SKC
     FM242100 33010G18KT P6SM SCT080=

USA.gov is the U.S. government's official web portal to all federal, state and local government web resources and services.